LYEWL ESUT-EN08

Flight info

Callsign LYEWL
Flight time N/A
Altitude 4000
Route ESUT ENHT EN08
Aircraft BE58/L-VGD/A

Departure

Time 2026-04-22 18:08
Airport Hemavan Airport (ESUT)

Arrival

Time N/A
Airport EN08
Time Latitude Longitude Altitude Speed Heading
2026-04-22 17:57 65.81149 15.08201 1505 ft 0 kts 291°
2026-04-22 18:01 65.81150 15.08137 1504 ft 0 kts 227°
2026-04-22 18:02 65.81152 15.08061 1503 ft 0 kts 257°
2026-04-22 18:02 65.81152 15.08060 1503 ft 0 kts 257°
2026-04-22 18:04 65.81151 15.08057 1503 ft 1 kts 266°
2026-04-22 18:04 65.81174 15.07975 1503 ft 10 kts 305°
2026-04-22 18:04 65.81181 15.07917 1501 ft 4 kts 273°
2026-04-22 18:05 65.81170 15.07845 1500 ft 0 kts 235°
2026-04-22 18:06 65.81157 15.07774 1500 ft 7 kts 240°
2026-04-22 18:06 65.81127 15.07646 1500 ft 9 kts 212°
2026-04-22 18:06 65.81098 15.07657 1500 ft 0 kts 155°
2026-04-22 18:07 65.81096 15.07660 1500 ft 8 kts 155°
2026-04-22 18:07 65.80738 15.08122 1504 ft 95 kts 153°
2026-04-22 18:07 65.80026 15.08999 1579 ft 121 kts 152°
2026-04-22 18:08 65.79298 15.09801 1935 ft 116 kts 157°
2026-04-22 18:08 65.78519 15.10602 2155 ft 122 kts 156°
2026-04-22 18:08 65.77744 15.11448 2393 ft 122 kts 155°
2026-04-22 18:08 65.76979 15.12345 2625 ft 124 kts 154°
2026-04-22 18:09 65.76213 15.13337 2858 ft 122 kts 151°
2026-04-22 18:09 65.75471 15.14386 2910 ft 125 kts 147°
2026-04-22 18:09 65.74891 15.15872 3033 ft 119 kts 114°
2026-04-22 18:09 65.74648 15.17874 3034 ft 125 kts 101°
2026-04-22 18:10 65.74541 15.19954 2973 ft 127 kts 91°
2026-04-22 18:10 65.74571 15.22292 2869 ft 142 kts 86°
2026-04-22 18:10 65.74631 15.24691 3045 ft 135 kts 87°
2026-04-22 18:10 65.74734 15.26983 3101 ft 139 kts 81°
2026-04-22 18:11 65.74886 15.29321 3188 ft 139 kts 79°
2026-04-22 18:11 65.75041 15.31708 3211 ft 143 kts 78°
2026-04-22 18:11 65.75567 15.33417 3463 ft 130 kts 28°
2026-04-22 18:11 65.76482 15.34305 3347 ft 145 kts 14°
2026-04-22 18:12 65.77477 15.34806 3414 ft 145 kts
2026-04-22 18:12 65.78468 15.35260 3435 ft 148 kts 10°
2026-04-22 18:12 65.79150 15.35548 3444 ft 149 kts
2026-04-22 18:12 65.80551 15.35473 3462 ft 152 kts 350°
2026-04-22 18:13 65.81595 15.34995 3470 ft 153 kts 349°
2026-04-22 18:13 65.82651 15.34616 3615 ft 144 kts 353°
2026-04-22 18:13 65.83597 15.34229 3836 ft 134 kts 345°
2026-04-22 18:13 65.84586 15.33771 3784 ft 141 kts 347°
2026-04-22 18:14 65.85405 15.33024 4121 ft 124 kts 331°
2026-04-22 18:14 65.86304 15.32110 3883 ft 149 kts 339°
2026-04-22 18:14 65.87082 15.30616 3941 ft 142 kts 303°
2026-04-22 18:14 65.87467 15.28422 3820 ft 134 kts 288°
2026-04-22 18:15 65.87730 15.26221 3665 ft 131 kts 284°
2026-04-22 18:15 65.87932 15.24103 3573 ft 123 kts 281°
2026-04-22 18:15 65.88107 15.22040 3455 ft 123 kts 281°
2026-04-22 18:15 65.88364 15.20052 3401 ft 120 kts 297°
2026-04-22 18:16 65.88751 15.18222 3356 ft 118 kts 287°
2026-04-22 18:16 65.88827 15.16244 3328 ft 114 kts 262°
2026-04-22 18:16 65.88413 15.14676 3169 ft 115 kts 214°
2026-04-22 18:16 65.87772 15.13490 3043 ft 115 kts 221°
2026-04-22 18:17 65.87206 15.12104 2989 ft 110 kts 223°
2026-04-22 18:17 65.86673 15.10749 2886 ft 106 kts 233°
2026-04-22 18:17 65.86289 15.09235 2778 ft 108 kts 235°
2026-04-22 18:17 65.85738 15.08025 2701 ft 104 kts 215°
2026-04-22 18:18 65.85126 15.07042 2582 ft 105 kts 212°
2026-04-22 18:18 65.84511 15.06098 2479 ft 105 kts 206°
2026-04-22 18:18 65.83805 15.05343 2240 ft 112 kts 198°
2026-04-22 18:18 65.83069 15.05239 2093 ft 106 kts 161°
2026-04-22 18:19 65.82391 15.06034 1869 ft 106 kts 149°
2026-04-22 18:19 65.81768 15.06880 1737 ft 99 kts 154°
2026-04-22 18:19 65.81146 15.07587 1528 ft 93 kts 152°
2026-04-22 18:19 65.80582 15.08301 1503 ft 107 kts 152°
2026-04-22 18:20 65.79853 15.09189 1716 ft 115 kts 154°
2026-04-22 18:20 65.79126 15.10075 1983 ft 117 kts 153°
2026-04-22 18:20 65.78413 15.10471 2484 ft 97 kts 193°
2026-04-22 18:20 65.78219 15.09130 2686 ft 109 kts 293°
2026-04-22 18:21 65.78738 15.07502 2734 ft 126 kts 318°
2026-04-22 18:21 65.79394 15.06058 2868 ft 136 kts 316°
2026-04-22 18:21 65.80119 15.04379 3099 ft 147 kts 316°
2026-04-22 18:21 65.80787 15.02473 3425 ft 148 kts 305°
2026-04-22 18:22 65.81274 15.00115 3598 ft 159 kts 288°
2026-04-22 18:22 65.81587 14.97496 3650 ft 159 kts 283°
2026-04-22 18:22 65.81828 14.94832 3618 ft 159 kts 282°
2026-04-22 18:22 65.82038 14.92202 3648 ft 156 kts 279°
2026-04-22 18:23 65.82174 14.89502 3551 ft 161 kts 276°
2026-04-22 18:23 65.82251 14.86786 3586 ft 156 kts 269°
2026-04-22 18:23 65.82244 14.84150 3576 ft 157 kts 271°
2026-04-22 18:24 65.82709 14.78885 3562 ft 154 kts 288°
2026-04-22 18:24 65.83079 14.76452 3649 ft 148 kts 294°
2026-04-22 18:24 65.83910 14.71892 3844 ft 139 kts 277°
2026-04-22 18:25 65.83598 14.69679 3714 ft 152 kts 233°
2026-04-22 18:25 65.82830 14.67869 3732 ft 151 kts 212°
2026-04-22 18:25 65.81865 14.66784 3741 ft 150 kts 199°
2026-04-22 18:26 65.80190 14.64061 3855 ft 147 kts 233°
2026-04-22 18:26 65.79452 14.62265 3762 ft 154 kts 230°
2026-04-22 18:26 65.79199 14.59810 3738 ft 155 kts 276°
2026-04-22 18:26 65.79399 14.57230 3700 ft 156 kts 281°
2026-04-22 18:27 65.79531 14.54609 3770 ft 152 kts 274°
2026-04-22 18:27 65.79557 14.52055 3851 ft 147 kts 269°
2026-04-22 18:27 65.79527 14.49495 3875 ft 148 kts 271°
2026-04-22 18:27 65.79593 14.46988 3926 ft 147 kts 273°
2026-04-22 18:28 65.79427 14.44528 3981 ft 146 kts 240°
2026-04-22 18:28 65.78660 14.42869 3957 ft 150 kts 211°
2026-04-22 18:28 65.77683 14.41961 4004 ft 149 kts 192°
2026-04-22 18:28 65.76643 14.41842 4058 ft 148 kts 176°
2026-04-22 18:29 65.75619 14.42121 4107 ft 147 kts 173°
2026-04-22 18:29 65.74599 14.42329 4188 ft 144 kts 176°
2026-04-22 18:29 65.73576 14.42200 4199 ft 147 kts 193°
2026-04-22 18:29 65.72564 14.41551 4188 ft 150 kts 194°
2026-04-22 18:30 65.71564 14.40873 4250 ft 148 kts 199°
2026-04-22 18:30 65.69896 14.38112 4313 ft 149 kts 238°
2026-04-22 18:30 65.69472 14.35781 4350 ft 148 kts 251°
2026-04-22 18:31 65.69178 14.33375 4389 ft 149 kts 256°
2026-04-22 18:31 65.68999 14.30924 4342 ft 146 kts 262°
2026-04-22 18:31 65.68879 14.28420 4055 ft 151 kts 264°
2026-04-22 18:31 65.68817 14.25867 3715 ft 151 kts 268°
2026-04-22 18:32 65.68842 14.23298 3402 ft 150 kts 272°
2026-04-22 18:32 65.68914 14.20785 3117 ft 147 kts 274°
2026-04-22 18:32 65.68978 14.18375 2938 ft 139 kts 271°
2026-04-22 18:32 65.68928 14.16119 2873 ft 128 kts 261°
2026-04-22 18:33 65.68739 14.13972 2697 ft 128 kts 250°
2026-04-22 18:33 65.68349 14.12120 2621 ft 119 kts 233°
2026-04-22 18:33 65.67793 14.10670 2544 ft 110 kts 214°
2026-04-22 18:33 65.67116 14.09855 2320 ft 111 kts 213°
2026-04-22 18:34 65.66465 14.08964 2237 ft 104 kts 204°
2026-04-22 18:34 65.65771 14.08316 2135 ft 111 kts 201°
2026-04-22 18:34 65.65004 14.07870 2133 ft 113 kts 180°
2026-04-22 18:34 65.64233 14.08257 2082 ft 115 kts 159°
2026-04-22 18:35 65.63474 14.08683 2138 ft 108 kts 175°
2026-04-22 18:35 65.62717 14.08790 2142 ft 110 kts 181°
2026-04-22 18:35 65.61946 14.08746 2070 ft 112 kts 182°
2026-04-22 18:35 65.61176 14.08596 2015 ft 111 kts 187°
2026-04-22 18:36 65.60419 14.08406 1890 ft 109 kts 186°
2026-04-22 18:36 65.59689 14.08067 1780 ft 105 kts 208°
2026-04-22 18:36 65.59250 14.06772 1668 ft 103 kts 256°
2026-04-22 18:36 65.59254 14.05025 1468 ft 105 kts 277°
2026-04-22 18:37 65.59353 14.03314 1246 ft 101 kts 277°
2026-04-22 18:37 65.59411 14.01694 1048 ft 96 kts 271°
2026-04-22 18:37 65.59438 14.00133 837 ft 89 kts 278°
2026-04-22 18:37 65.59446 13.98656 726 ft 87 kts 265°
2026-04-22 18:38 65.59471 13.97077 1041 ft 92 kts 268°
2026-04-22 18:38 65.59099 13.96154 1409 ft 95 kts 189°
2026-04-22 18:38 65.58546 13.95358 1791 ft 103 kts 254°
2026-04-22 18:39 65.58065 13.92257 2287 ft 117 kts 242°
2026-04-22 18:39 65.57668 13.90424 2517 ft 123 kts 246°
2026-04-22 18:39 65.57319 13.88519 2615 ft 129 kts 242°
2026-04-22 18:39 65.56796 13.86670 2625 ft 135 kts 235°
2026-04-22 18:40 65.56229 13.84848 2665 ft 137 kts 230°
2026-04-22 18:40 65.55615 13.83037 2665 ft 142 kts 230°
2026-04-22 18:40 65.54951 13.81202 2699 ft 145 kts 229°
2026-04-22 18:40 65.54249 13.79363 2703 ft 152 kts 227°
2026-04-22 18:41 65.53487 13.77534 2735 ft 153 kts 221°
2026-04-22 18:41 65.52715 13.75882 2962 ft 143 kts 224°
2026-04-22 18:41 65.51936 13.74320 3009 ft 147 kts 210°
2026-04-22 18:41 65.51002 13.73263 3088 ft 150 kts 201°
2026-04-22 18:42 65.49991 13.72470 3139 ft 155 kts 195°
2026-04-22 18:42 65.48932 13.71853 3178 ft 158 kts 193°
2026-04-22 18:42 65.47832 13.71297 3208 ft 162 kts 192°
2026-04-22 18:42 65.46725 13.70646 3234 ft 163 kts 195°
2026-04-22 18:43 65.45599 13.69943 3228 ft 166 kts 197°
2026-04-22 18:43 65.44486 13.69134 3234 ft 168 kts 198°
2026-04-22 18:43 65.43350 13.68343 3233 ft 169 kts 196°
2026-04-22 18:43 65.42224 13.67566 3297 ft 163 kts 197°
2026-04-22 18:44 65.41132 13.66791 3283 ft 160 kts 197°
2026-04-22 18:44 65.40073 13.65994 3279 ft 157 kts 199°
2026-04-22 18:44 65.39038 13.65053 3300 ft 154 kts 201°
2026-04-22 18:44 65.38038 13.64107 3284 ft 154 kts 207°
2026-04-22 18:45 65.37096 13.62933 3358 ft 149 kts 207°
2026-04-22 18:45 65.36151 13.61807 3363 ft 149 kts 206°
2026-04-22 18:45 65.35205 13.60845 3413 ft 147 kts 200°
2026-04-22 18:45 65.34236 13.59873 3390 ft 150 kts 204°
2026-04-22 18:46 65.33275 13.58816 3429 ft 148 kts 205°
2026-04-22 18:46 65.32338 13.57712 3410 ft 150 kts 207°
2026-04-22 18:46 65.31393 13.56549 3426 ft 149 kts 207°
2026-04-22 18:46 65.30453 13.55336 3388 ft 152 kts 210°
2026-04-22 18:47 65.29527 13.54070 3389 ft 152 kts 210°
2026-04-22 18:47 65.28584 13.52791 3374 ft 153 kts 210°
2026-04-22 18:47 65.27653 13.51552 3378 ft 152 kts 209°
2026-04-22 18:47 65.26668 13.50372 3347 ft 153 kts 205°
2026-04-22 18:48 65.25655 13.49442 3323 ft 154 kts 199°
2026-04-22 18:48 65.24644 13.48620 3343 ft 152 kts 199°
2026-04-22 18:48 65.23637 13.47787 3382 ft 149 kts 199°
2026-04-22 18:48 65.22630 13.47040 3405 ft 149 kts 198°
2026-04-22 18:49 65.21644 13.46178 3396 ft 150 kts 202°
2026-04-22 18:49 65.20627 13.45272 3321 ft 155 kts 200°
2026-04-22 18:49 65.19574 13.44478 3290 ft 156 kts 196°
2026-04-22 18:49 65.18521 13.43784 3285 ft 154 kts 195°
2026-04-22 18:50 65.17472 13.43175 3309 ft 152 kts 194°
2026-04-22 18:50 65.16457 13.42497 3336 ft 150 kts 197°
2026-04-22 18:50 65.15417 13.41815 3311 ft 151 kts 195°
2026-04-22 18:50 65.14374 13.41090 3275 ft 153 kts 198°
2026-04-22 18:51 65.13383 13.40163 3284 ft 152 kts 205°
2026-04-22 18:51 65.12419 13.39062 3266 ft 153 kts 208°
2026-04-22 18:51 65.11448 13.37862 3237 ft 154 kts 207°
2026-04-22 18:51 65.10469 13.36704 3038 ft 166 kts 209°
2026-04-22 18:52 65.09481 13.35586 3372 ft 138 kts 200°
2026-04-22 18:52 65.08581 13.34861 3419 ft 140 kts 202°
2026-04-22 18:52 65.07709 13.34000 3581 ft 132 kts 201°
2026-04-22 18:52 65.06804 13.33188 3635 ft 131 kts 199°
2026-04-22 18:53 65.05943 13.32552 3700 ft 133 kts 199°
2026-04-22 18:53 65.05090 13.31546 3750 ft 134 kts 208°
2026-04-22 18:53 65.04260 13.30654 3862 ft 132 kts 200°
2026-04-22 18:53 65.03355 13.29881 3827 ft 140 kts 207°
2026-04-22 18:54 65.02473 13.28750 3740 ft 149 kts 208°
2026-04-22 18:54 65.01553 13.27587 3760 ft 149 kts 208°
2026-04-22 18:54 65.00623 13.26375 3720 ft 152 kts 208°
2026-04-22 18:54 64.99731 13.25062 3778 ft 147 kts 215°
2026-04-22 18:55 64.98865 13.23712 3768 ft 148 kts 213°
2026-04-22 18:55 64.97993 13.22386 3751 ft 150 kts 212°
2026-04-22 18:55 64.97108 13.21016 3737 ft 151 kts 213°
2026-04-22 18:55 64.96251 13.19571 3676 ft 154 kts 217°
2026-04-22 18:56 64.95370 13.18058 3633 ft 155 kts 214°
2026-04-22 18:56 64.94486 13.16633 3615 ft 155 kts 214°
2026-04-22 18:56 64.93572 13.15249 3568 ft 156 kts 211°
2026-04-22 18:56 64.92626 13.13941 3505 ft 158 kts 210°
2026-04-22 18:57 64.91670 13.12666 3480 ft 156 kts 208°
2026-04-22 18:57 64.90693 13.11534 3458 ft 155 kts 205°
2026-04-22 18:57 64.89742 13.10400 3492 ft 151 kts 210°
2026-04-22 18:57 64.88830 13.09084 3449 ft 154 kts 211°
2026-04-22 18:58 64.87904 13.07840 3467 ft 151 kts 210°
2026-04-22 18:58 64.86990 13.06524 3384 ft 155 kts 211°
2026-04-22 18:58 64.86081 13.05198 3389 ft 153 kts 212°
2026-04-22 18:58 64.85190 13.03808 3340 ft 155 kts 215°
2026-04-22 18:59 64.84303 13.02385 3354 ft 152 kts 213°
2026-04-22 18:59 64.83405 13.01069 3350 ft 151 kts 212°
2026-04-22 18:59 64.82517 12.99708 3391 ft 148 kts 213°
2026-04-22 18:59 64.81623 12.98402 3344 ft 151 kts 213°
2026-04-22 19:00 64.80773 12.96953 3328 ft 152 kts 217°
2026-04-22 19:00 64.79945 12.95414 3323 ft 151 kts 220°
2026-04-22 19:00 64.79105 12.93852 3256 ft 155 kts 218°
2026-04-22 19:00 64.78247 12.92318 3277 ft 151 kts 217°
2026-04-22 19:01 64.77434 12.90815 3299 ft 150 kts 218°
2026-04-22 19:01 64.76595 12.89267 3252 ft 152 kts 220°
2026-04-22 19:01 64.75758 12.87792 3269 ft 150 kts 216°
2026-04-22 19:01 64.74911 12.86378 3284 ft 149 kts 214°
2026-04-22 19:02 64.74031 12.85061 3294 ft 148 kts 212°
2026-04-22 19:02 64.73144 12.83814 3307 ft 148 kts 211°
2026-04-22 19:02 64.72273 12.82576 3322 ft 148 kts 212°
2026-04-22 19:02 64.71376 12.81259 3214 ft 155 kts 213°
2026-04-22 19:03 64.70496 12.79822 3212 ft 153 kts 215°
2026-04-22 19:03 64.69630 12.78409 3221 ft 151 kts 216°
2026-04-22 19:03 64.68810 12.76796 3140 ft 156 kts 222°
2026-04-22 19:03 64.68011 12.75060 3096 ft 156 kts 223°
2026-04-22 19:04 64.67217 12.73342 3075 ft 155 kts 224°
2026-04-22 19:04 64.66424 12.71626 3080 ft 153 kts 223°
2026-04-22 19:04 64.65633 12.69986 3044 ft 154 kts 221°
2026-04-22 19:04 64.64819 12.68328 3030 ft 153 kts 220°
2026-04-22 19:05 64.63972 12.66838 3037 ft 151 kts 217°
2026-04-22 19:05 64.63158 12.65258 3003 ft 153 kts 221°
2026-04-22 19:05 64.62333 12.63678 2984 ft 153 kts 217°
2026-04-22 19:05 64.61446 12.62236 2925 ft 155 kts 216°
2026-04-22 19:06 64.60611 12.60710 2965 ft 150 kts 224°
2026-04-22 19:06 64.59879 12.59002 2982 ft 149 kts 223°
2026-04-22 19:06 64.59094 12.57370 2947 ft 151 kts 228°
2026-04-22 19:07 64.57690 12.53787 3026 ft 144 kts 227°
2026-04-22 19:07 64.57011 12.52084 3042 ft 142 kts 227°
2026-04-22 19:07 64.56294 12.50519 2857 ft 145 kts 221°
2026-04-22 19:07 64.55604 12.48829 2765 ft 141 kts 231°
2026-04-22 19:08 64.55005 12.47032 2604 ft 142 kts 231°
2026-04-22 19:08 64.54425 12.45258 2560 ft 135 kts 234°
2026-04-22 19:08 64.53854 12.43575 2427 ft 131 kts 230°
2026-04-22 19:08 64.53269 12.41979 2323 ft 125 kts 230°
2026-04-22 19:09 64.52683 12.40584 2328 ft 128 kts 225°
2026-04-22 19:09 64.51985 12.39040 2478 ft 145 kts 224°
2026-04-22 19:09 64.51208 12.37421 2661 ft 155 kts 223°
2026-04-22 19:09 64.50357 12.35770 2714 ft 161 kts 219°
2026-04-22 19:10 64.49513 12.34207 2591 ft 152 kts 219°
2026-04-22 19:10 64.48679 12.32730 2413 ft 149 kts 212°
2026-04-22 19:10 64.47750 12.31801 2268 ft 145 kts 193°
2026-04-22 19:10 64.46769 12.31427 2137 ft 141 kts 185°
2026-04-22 19:11 64.45812 12.31335 2014 ft 132 kts 185°
2026-04-22 19:11 64.44937 12.31182 2002 ft 126 kts 185°
2026-04-22 19:11 64.44034 12.31104 2053 ft 128 kts 183°
2026-04-22 19:11 64.43151 12.30946 2130 ft 127 kts 181°
2026-04-22 19:12 64.42284 12.30973 2073 ft 119 kts 177°
2026-04-22 19:12 64.41487 12.31221 1925 ft 115 kts 170°
2026-04-22 19:12 64.40693 12.31635 1742 ft 117 kts 166°
2026-04-22 19:12 64.39921 12.32146 1625 ft 112 kts 163°
2026-04-22 19:13 64.39179 12.32620 1510 ft 109 kts 168°
2026-04-22 19:13 64.38467 12.32765 1471 ft 98 kts 187°
2026-04-22 19:13 64.37813 12.32784 1389 ft 93 kts 168°
2026-04-22 19:13 64.37266 12.33517 1274 ft 97 kts 126°
2026-04-22 19:14 64.37278 12.34991 1065 ft 104 kts 45°
2026-04-22 19:14 64.37921 12.35312 965 ft 100 kts
2026-04-22 19:14 64.38562 12.34952 832 ft 93 kts 337°
2026-04-22 19:14 64.39120 12.34457 593 ft 88 kts 341°
2026-04-22 19:15 64.39477 12.34136 424 ft 73 kts 338°
2026-04-22 19:15 64.39626 12.33999 423 ft 0 kts 325°
2026-04-22 19:15 64.39661 12.33926 426 ft 3 kts 295°
2026-04-22 19:15 64.39669 12.33849 427 ft 1 kts 283°
2026-04-22 19:16 64.39676 12.33831 427 ft 0 kts 326°
2026-04-22 19:16 64.39685 12.33826 427 ft 0 kts 49°